createdAt,value
2023-05-20T00:00:31.701Z,12.50
2023-05-20T00:02:04.825Z,12.40
2023-05-20T00:03:38.344Z,12.40
2023-05-20T00:05:11.756Z,12.40
2023-05-20T00:06:44.955Z,12.30
2023-05-20T00:08:19.436Z,12.30
2023-05-20T00:09:52.589Z,12.20
2023-05-20T00:11:26.235Z,12.20
2023-05-20T00:12:59.387Z,12.20
2023-05-20T00:14:32.511Z,12.10
2023-05-20T00:16:06.388Z,12.10
2023-05-20T00:17:39.566Z,12.00
2023-05-20T00:19:11.780Z,12.00
2023-05-20T00:20:44.909Z,12.00
2023-05-20T00:22:18.178Z,11.90
2023-05-20T00:23:52.764Z,11.90
2023-05-20T00:25:26.145Z,11.80
2023-05-20T00:26:59.291Z,11.80
2023-05-20T00:28:32.626Z,11.80
2023-05-20T00:30:06.823Z,11.80
2023-05-20T00:31:40.000Z,11.80
2023-05-20T00:33:13.268Z,11.90
2023-05-20T00:34:56.388Z,11.80
2023-05-20T00:36:29.529Z,11.90
2023-05-20T00:38:02.783Z,11.90
2023-05-20T00:39:36.372Z,11.90
2023-05-20T00:41:09.517Z,12.00
2023-05-20T00:42:41.784Z,11.90
2023-05-20T00:44:14.880Z,11.90
2023-05-20T00:45:48.320Z,11.90
2023-05-20T00:47:22.647Z,11.80
2023-05-20T00:48:55.942Z,11.80
2023-05-20T00:50:29.328Z,11.90
2023-05-20T00:52:02.740Z,11.80
2023-05-20T00:53:36.164Z,11.80
2023-05-20T00:55:11.046Z,11.80
2023-05-20T00:56:44.473Z,11.80
2023-05-20T00:58:17.615Z,11.80
2023-05-20T00:59:50.811Z,11.60
2023-05-20T01:01:23.223Z,11.60
2023-05-20T01:02:57.664Z,11.50
2023-05-20T01:04:30.248Z,11.40
2023-05-20T01:06:03.903Z,11.30
2023-05-20T01:07:36.427Z,11.20
2023-05-20T01:09:09.573Z,11.00
2023-05-20T01:10:48.491Z,10.90
2023-05-20T01:12:26.903Z,10.80
2023-05-20T01:14:03.143Z,10.70
2023-05-20T01:15:37.518Z,10.50
2023-05-20T01:17:12.679Z,10.50
2023-05-20T01:18:48.596Z,10.40
2023-05-20T01:20:22.695Z,10.30
2023-05-20T01:21:56.802Z,10.20
2023-05-20T01:23:36.423Z,10.20
2023-05-20T01:25:10.177Z,10.20
2023-05-20T01:26:42.343Z,10.10
2023-05-20T01:28:18.255Z,10.10
2023-05-20T01:29:51.976Z,10.10
2023-05-20T01:31:29.322Z,10.10
2023-05-20T01:33:08.338Z,10.10
2023-05-20T01:34:45.218Z,10.10
2023-05-20T01:36:19.728Z,10.10
2023-05-20T01:37:54.067Z,10.10
2023-05-20T01:39:30.945Z,10.10
2023-05-20T01:41:05.802Z,10.20
2023-05-20T01:42:40.970Z,10.10
2023-05-20T01:44:14.554Z,10.00
2023-05-20T01:45:47.980Z,10.00
2023-05-20T01:47:21.142Z,9.90
2023-05-20T01:48:54.413Z,9.90
2023-05-20T01:50:27.584Z,9.90
2023-05-20T01:52:00.907Z,9.80
2023-05-20T01:53:35.966Z,9.70
2023-05-20T01:55:11.290Z,9.70
2023-05-20T01:56:44.800Z,9.60
2023-05-20T01:58:17.956Z,9.50
2023-05-20T01:59:50.721Z,9.50
2023-05-20T02:01:23.968Z,9.40
2023-05-20T02:02:57.459Z,9.30
2023-05-20T02:04:30.585Z,9.20
2023-05-20T02:06:03.833Z,9.10
2023-05-20T02:07:36.087Z,9.00
2023-05-20T02:09:09.226Z,9.00
2023-05-20T02:10:42.720Z,8.90
2023-05-20T02:12:17.401Z,8.80
2023-05-20T02:13:51.484Z,8.80
2023-05-20T02:15:24.594Z,8.80
2023-05-20T02:16:57.914Z,8.60
2023-05-20T02:18:32.690Z,8.60
2023-05-20T02:20:07.714Z,8.50
2023-05-20T02:21:41.442Z,8.50
2023-05-20T02:23:16.372Z,8.40
2023-05-20T02:24:48.511Z,8.40
2023-05-20T02:26:23.666Z,8.40
2023-05-20T02:27:56.836Z,8.30
2023-05-20T02:29:28.993Z,8.30
2023-05-20T02:31:02.157Z,8.20
2023-05-20T02:32:36.498Z,8.20
2023-05-20T02:34:09.775Z,8.10
2023-05-20T02:35:42.915Z,8.10
2023-05-20T02:37:16.139Z,8.00
2023-05-20T02:38:49.455Z,8.00
2023-05-20T02:40:21.768Z,8.00
2023-05-20T02:41:56.350Z,8.00
2023-05-20T02:43:29.460Z,7.90
2023-05-20T02:45:02.611Z,7.90
2023-05-20T02:46:35.873Z,7.90
2023-05-20T02:48:09.094Z,8.00
2023-05-20T02:49:43.074Z,8.00
2023-05-20T02:51:16.473Z,8.00
2023-05-20T02:52:48.724Z,8.00
2023-05-20T02:54:22.016Z,8.10
2023-05-20T02:55:55.172Z,8.10
2023-05-20T02:57:29.674Z,8.10
2023-05-20T02:59:03.661Z,8.20
2023-05-20T03:00:40.979Z,8.10
2023-05-20T03:02:14.662Z,8.20
2023-05-20T03:03:47.883Z,8.20
2023-05-20T03:05:20.046Z,8.20
2023-05-20T03:06:53.822Z,8.20
2023-05-20T03:08:29.696Z,8.20
2023-05-20T03:10:04.967Z,8.30
2023-05-20T03:11:38.175Z,8.30
2023-05-20T03:13:12.933Z,8.30
2023-05-20T03:14:45.103Z,8.30
2023-05-20T03:16:19.953Z,8.30
2023-05-20T03:17:53.132Z,8.50
2023-05-20T03:19:26.330Z,8.50
2023-05-20T03:20:59.657Z,8.50
2023-05-20T03:22:31.886Z,8.50
2023-05-20T03:24:05.512Z,8.60
2023-05-20T03:25:38.835Z,8.60
2023-05-20T03:27:12.119Z,8.70
2023-05-20T03:28:46.722Z,8.70
2023-05-20T03:30:19.068Z,8.80
2023-05-20T03:31:52.325Z,9.00
2023-05-20T03:33:26.316Z,9.10
2023-05-20T03:35:00.349Z,9.10
2023-05-20T03:36:33.503Z,9.20
2023-05-20T03:38:05.829Z,9.30
2023-05-20T03:39:40.975Z,9.40
2023-05-20T03:41:14.942Z,9.50
2023-05-20T03:42:47.578Z,9.60
2023-05-20T03:44:22.155Z,9.70
2023-05-20T03:45:55.500Z,9.70
2023-05-20T03:47:29.243Z,9.80
2023-05-20T03:49:02.998Z,10.00
2023-05-20T03:50:37.255Z,10.00
2023-05-20T03:52:09.647Z,10.00
2023-05-20T03:53:42.776Z,10.00
2023-05-20T03:55:15.354Z,10.10
2023-05-20T03:56:49.422Z,10.20
2023-05-20T03:58:22.337Z,10.30
2023-05-20T03:59:57.874Z,10.30
2023-05-20T04:01:32.066Z,10.30
2023-05-20T04:03:05.937Z,10.40
2023-05-20T04:04:39.284Z,10.40
2023-05-20T04:06:12.390Z,10.40
2023-05-20T04:07:45.507Z,10.50
2023-05-20T04:09:24.511Z,10.50
2023-05-20T04:10:58.213Z,10.60
2023-05-20T04:12:32.450Z,10.60
2023-05-20T04:14:05.766Z,10.60
2023-05-20T04:15:41.480Z,10.70
2023-05-20T04:17:14.811Z,10.70
2023-05-20T04:18:48.401Z,10.80
2023-05-20T04:20:20.906Z,10.90
2023-05-20T04:21:55.199Z,11.00
2023-05-20T04:23:28.497Z,11.00
2023-05-20T04:25:03.469Z,11.10
2023-05-20T04:26:36.729Z,11.10
2023-05-20T04:28:10.650Z,11.10
2023-05-20T04:29:45.907Z,11.10
2023-05-20T04:31:21.253Z,11.20
2023-05-20T04:32:55.590Z,11.30
2023-05-20T04:34:29.817Z,11.30
2023-05-20T04:36:03.132Z,11.40
2023-05-20T04:37:37.458Z,11.50
2023-05-20T04:39:11.150Z,11.60
2023-05-20T04:40:44.274Z,11.60
2023-05-20T04:42:18.462Z,11.70
2023-05-20T04:43:51.716Z,11.80
2023-05-20T04:45:25.160Z,11.90
2023-05-20T04:46:59.750Z,11.90
2023-05-20T04:48:33.354Z,12.00
2023-05-20T04:50:10.587Z,12.10
2023-05-20T04:51:44.029Z,12.20
2023-05-20T04:53:18.982Z,12.30
2023-05-20T04:54:52.157Z,12.40
2023-05-20T04:56:26.098Z,12.60
2023-05-20T04:57:59.266Z,12.70
2023-05-20T04:59:31.497Z,12.70
2023-05-20T05:01:04.681Z,12.80
2023-05-20T05:02:39.567Z,12.90
2023-05-20T05:04:12.816Z,13.00
2023-05-20T05:05:46.718Z,13.00
2023-05-20T05:07:21.195Z,13.10
2023-05-20T05:08:55.318Z,13.00
2023-05-20T05:10:28.532Z,12.90
2023-05-20T05:12:02.712Z,13.00
2023-05-20T05:13:34.885Z,13.10
2023-05-20T05:15:09.519Z,13.20
2023-05-20T05:16:42.636Z,13.30
2023-05-20T05:18:18.511Z,13.30
2023-05-20T05:19:51.828Z,13.40
2023-05-20T05:21:25.297Z,13.50
2023-05-20T05:22:58.440Z,13.50
2023-05-20T05:24:31.617Z,13.50
2023-05-20T05:26:04.816Z,13.50
2023-05-20T05:27:38.014Z,13.50
2023-05-20T05:29:11.749Z,13.50
2023-05-20T05:30:45.100Z,13.50
2023-05-20T05:32:18.450Z,13.50
2023-05-20T05:33:53.037Z,13.70
2023-05-20T05:35:26.651Z,13.80
2023-05-20T05:36:59.767Z,13.70
2023-05-20T05:38:33.111Z,13.70
2023-05-20T05:40:08.076Z,13.70
2023-05-20T05:41:41.261Z,13.80
2023-05-20T05:43:14.511Z,13.80
2023-05-20T05:44:47.803Z,13.80
2023-05-20T05:46:22.073Z,13.90
2023-05-20T05:47:55.839Z,13.90
2023-05-20T05:49:30.493Z,13.90
2023-05-20T05:51:03.694Z,14.00
2023-05-20T05:52:37.097Z,14.10
2023-05-20T05:54:12.155Z,14.00
2023-05-20T05:55:46.995Z,13.90
2023-05-20T05:57:20.309Z,14.00
2023-05-20T05:58:54.352Z,14.00
2023-05-20T06:00:27.490Z,14.00
2023-05-20T06:02:01.005Z,14.00
2023-05-20T06:03:34.268Z,13.90
2023-05-20T06:05:10.409Z,14.00
2023-05-20T06:06:43.627Z,14.10
2023-05-20T06:08:16.891Z,14.20
2023-05-20T06:09:50.639Z,14.40
2023-05-20T06:11:24.147Z,14.50
2023-05-20T06:12:58.166Z,14.60
2023-05-20T06:14:32.619Z,14.70
2023-05-20T06:16:06.348Z,14.90
2023-05-20T06:17:39.607Z,14.90
2023-05-20T06:19:12.811Z,15.00
2023-05-20T06:20:47.348Z,15.10
2023-05-20T06:22:19.529Z,15.30
2023-05-20T06:23:52.715Z,15.50
2023-05-20T06:25:26.642Z,15.60
2023-05-20T06:26:59.766Z,15.80
2023-05-20T06:28:32.999Z,15.80
2023-05-20T06:30:07.133Z,15.70
2023-05-20T06:31:40.451Z,15.50
2023-05-20T06:33:14.157Z,15.40
2023-05-20T06:34:47.308Z,15.40
2023-05-20T06:36:21.903Z,15.50
2023-05-20T06:37:55.399Z,15.60
2023-05-20T06:39:28.555Z,15.60
2023-05-20T06:41:01.726Z,15.70
2023-05-20T06:42:35.620Z,15.80
2023-05-20T06:44:10.169Z,15.90
2023-05-20T06:45:58.917Z,15.60
2023-05-20T06:47:40.865Z,15.90
2023-05-20T06:49:13.823Z,16.20
2023-05-20T06:50:47.207Z,16.80
2023-05-20T06:52:21.720Z,17.70
2023-05-20T06:53:54.942Z,17.90
2023-05-20T06:55:28.689Z,17.40
2023-05-20T06:57:01.841Z,16.70
2023-05-20T06:58:34.200Z,16.50
2023-05-20T07:00:09.203Z,17.30
2023-05-20T07:01:46.444Z,17.90
2023-05-20T07:03:19.802Z,18.90
2023-05-20T07:04:53.018Z,18.40
2023-05-20T07:06:26.199Z,17.30
2023-05-20T07:08:01.482Z,18.50
2023-05-20T07:09:34.599Z,19.70
2023-05-20T07:11:07.769Z,20.70
2023-05-20T07:12:40.882Z,21.90
2023-05-20T07:14:14.043Z,23.00
2023-05-20T07:15:48.509Z,23.30
2023-05-20T07:17:22.643Z,23.20
2023-05-20T07:18:56.824Z,22.50
2023-05-20T07:20:30.869Z,21.90
2023-05-20T07:22:06.857Z,22.20
2023-05-20T07:23:41.334Z,23.50
2023-05-20T07:25:16.056Z,23.90
2023-05-20T07:26:49.186Z,23.50
2023-05-20T07:28:23.081Z,23.00
2023-05-20T07:29:56.682Z,22.40
2023-05-20T07:31:30.619Z,23.40
2023-05-20T07:33:03.954Z,24.70
2023-05-20T07:34:37.319Z,24.70
2023-05-20T07:36:11.251Z,24.80
2023-05-20T07:37:46.194Z,22.60
2023-05-20T07:39:20.819Z,21.00
2023-05-20T07:40:53.928Z,21.70
2023-05-20T07:42:27.501Z,22.30
2023-05-20T07:44:08.372Z,22.90
2023-05-20T07:45:44.116Z,23.10
2023-05-20T07:47:17.311Z,23.80
2023-05-20T07:48:50.526Z,24.30
2023-05-20T07:50:23.932Z,23.60
2023-05-20T07:51:57.154Z,24.20
2023-05-20T07:53:31.628Z,24.30
2023-05-20T07:55:07.334Z,24.70
2023-05-20T07:56:40.604Z,22.50
2023-05-20T07:58:14.410Z,23.80
2023-05-20T07:59:47.651Z,24.50
2023-05-20T08:01:22.117Z,26.00
2023-05-20T08:02:55.938Z,26.80
2023-05-20T08:04:37.861Z,27.40
2023-05-20T08:06:09.985Z,27.90
2023-05-20T08:07:43.130Z,27.50
2023-05-20T08:09:17.966Z,25.10
2023-05-20T08:10:56.773Z,25.10
2023-05-20T08:12:31.879Z,25.10
2023-05-20T08:14:05.063Z,24.00
2023-05-20T08:15:43.799Z,23.50
2023-05-20T08:17:17.408Z,24.10
2023-05-20T08:18:50.744Z,25.70
2023-05-20T08:20:26.481Z,24.70
2023-05-20T08:21:59.638Z,24.30
2023-05-20T08:23:35.928Z,25.00
2023-05-20T08:25:11.399Z,25.00
2023-05-20T08:26:45.945Z,25.90
2023-05-20T08:28:19.241Z,26.00
2023-05-20T08:29:52.372Z,26.00
2023-05-20T08:31:25.586Z,25.80
2023-05-20T08:32:58.815Z,25.70
2023-05-20T08:34:32.594Z,26.30
2023-05-20T08:36:06.609Z,26.00
2023-05-20T08:37:39.726Z,26.40
2023-05-20T08:39:12.963Z,26.10
2023-05-20T08:40:46.085Z,26.40
2023-05-20T08:42:23.891Z,26.50
2023-05-20T08:44:00.352Z,24.30
2023-05-20T08:45:35.199Z,23.60
2023-05-20T08:47:13.060Z,21.80
2023-05-20T08:48:46.620Z,21.10
2023-05-20T08:50:20.241Z,21.80
2023-05-20T08:51:53.445Z,21.80
2023-05-20T08:53:27.947Z,21.50
2023-05-20T08:55:00.827Z,21.20
2023-05-20T08:56:34.720Z,21.10
2023-05-20T08:58:09.284Z,20.70
2023-05-20T08:59:46.964Z,20.70
2023-05-20T09:01:20.673Z,21.60
2023-05-20T09:02:54.853Z,22.70
2023-05-20T09:04:27.986Z,22.60
2023-05-20T09:06:06.215Z,24.00
2023-05-20T09:07:39.383Z,24.10
2023-05-20T09:09:13.078Z,24.90
2023-05-20T09:10:46.179Z,22.70
2023-05-20T09:12:19.295Z,24.10
2023-05-20T09:13:53.722Z,23.90
2023-05-20T09:15:26.879Z,23.80
2023-05-20T09:17:00.708Z,23.90
2023-05-20T09:18:33.986Z,23.00
2023-05-20T09:20:11.963Z,23.10
2023-05-20T09:21:47.943Z,23.30
2023-05-20T09:23:22.282Z,24.10
2023-05-20T09:24:56.131Z,24.50
2023-05-20T09:26:30.275Z,24.50
2023-05-20T09:28:05.538Z,24.40
2023-05-20T09:29:40.048Z,24.00
2023-05-20T09:31:15.451Z,24.20
2023-05-20T09:32:54.611Z,24.20
2023-05-20T09:34:27.727Z,25.00
2023-05-20T09:36:05.362Z,24.40
2023-05-20T09:37:39.633Z,24.30
2023-05-20T09:39:17.002Z,23.40
2023-05-20T09:40:50.688Z,24.10
2023-05-20T09:42:28.426Z,23.70
2023-05-20T09:44:01.687Z,24.60
2023-05-20T09:45:36.684Z,25.00
2023-05-20T09:47:10.765Z,25.50
2023-05-20T09:48:45.250Z,25.00
2023-05-20T09:50:21.208Z,24.90
2023-05-20T09:51:57.252Z,22.60
2023-05-20T09:53:30.725Z,21.90
2023-05-20T09:55:05.820Z,22.00
2023-05-20T09:56:40.162Z,23.30
2023-05-20T09:58:16.439Z,23.40
2023-05-20T09:59:51.395Z,23.50
2023-05-20T10:01:26.252Z,22.20
2023-05-20T10:03:00.558Z,21.80
2023-05-20T10:04:35.930Z,22.20
2023-05-20T10:06:38.963Z,23.10
2023-05-20T10:08:40.275Z,23.80
2023-05-20T10:10:26.827Z,23.70
2023-05-20T10:12:08.750Z,23.90
2023-05-20T10:13:54.704Z,22.60
2023-05-20T10:15:34.625Z,22.90
2023-05-20T10:17:15.724Z,22.50
2023-05-20T10:18:58.087Z,22.40
2023-05-20T10:20:31.764Z,22.50
2023-05-20T10:22:06.206Z,23.60
2023-05-20T10:23:39.340Z,23.10
2023-05-20T10:25:24.702Z,22.80
2023-05-20T10:26:59.747Z,22.60
2023-05-20T10:28:36.112Z,23.70
2023-05-20T10:30:17.456Z,23.50
2023-05-20T10:31:51.867Z,24.30
2023-05-20T10:33:27.231Z,25.00
2023-05-20T10:35:02.246Z,25.10
2023-05-20T10:36:35.395Z,25.20
2023-05-20T10:38:10.922Z,24.70
2023-05-20T10:39:44.301Z,24.80
2023-05-20T10:41:23.026Z,25.70
2023-05-20T10:43:01.086Z,25.40
2023-05-20T10:44:43.409Z,24.30
2023-05-20T10:46:32.682Z,24.50
2023-05-20T10:48:21.977Z,23.80
2023-05-20T10:49:56.646Z,23.70
2023-05-20T10:51:31.836Z,22.80
2023-05-20T10:53:08.204Z,23.60
2023-05-20T10:54:48.766Z,23.40
2023-05-20T10:56:25.408Z,23.90
2023-05-20T10:57:58.379Z,24.60
2023-05-20T10:59:31.715Z,25.10
2023-05-20T11:01:05.050Z,25.00
2023-05-20T11:02:39.016Z,24.20
2023-05-20T11:04:12.410Z,24.30
2023-05-20T11:05:48.083Z,24.60
2023-05-20T11:07:28.865Z,24.80
2023-05-20T11:09:06.598Z,24.40
2023-05-20T11:10:39.825Z,23.60
2023-05-20T11:12:12.969Z,24.00
2023-05-20T11:13:46.905Z,24.80
2023-05-20T11:15:19.101Z,25.30
2023-05-20T11:16:54.320Z,25.70
2023-05-20T11:18:30.496Z,25.80
2023-05-20T11:20:04.430Z,26.10
2023-05-20T11:21:45.739Z,24.60
2023-05-20T11:23:19.220Z,23.30
2023-05-20T11:24:52.347Z,23.80
2023-05-20T11:26:25.906Z,24.30
2023-05-20T11:28:00.455Z,24.00
2023-05-20T11:29:33.426Z,24.00
2023-05-20T11:31:07.293Z,24.60
2023-05-20T11:32:40.541Z,25.20
2023-05-20T11:34:13.672Z,26.10
2023-05-20T11:35:47.863Z,25.80
2023-05-20T11:37:23.237Z,24.90
2023-05-20T11:38:57.970Z,24.00
2023-05-20T11:40:38.984Z,23.80
2023-05-20T11:42:16.592Z,23.60
2023-05-20T11:43:57.877Z,24.60
2023-05-20T11:45:41.140Z,25.40
2023-05-20T11:47:14.227Z,25.90
2023-05-20T11:48:54.181Z,26.10
2023-05-20T11:50:27.269Z,25.80
2023-05-20T11:52:00.371Z,24.80
2023-05-20T11:53:34.868Z,25.60
2023-05-20T11:55:12.196Z,26.30
2023-05-20T11:56:45.669Z,25.40
2023-05-20T11:58:20.854Z,25.20
2023-05-20T11:59:54.320Z,26.30
2023-05-20T12:01:28.265Z,26.70
2023-05-20T12:03:01.621Z,26.30
2023-05-20T12:04:34.821Z,26.70
2023-05-20T12:06:08.013Z,26.30
2023-05-20T12:07:40.227Z,25.90
2023-05-20T12:09:14.864Z,25.60
2023-05-20T12:10:47.990Z,25.30
2023-05-20T12:12:21.264Z,23.60
2023-05-20T12:13:54.525Z,23.60
2023-05-20T12:15:27.917Z,23.90
2023-05-20T12:17:01.120Z,24.50
2023-05-20T12:18:34.402Z,24.90
2023-05-20T12:20:07.935Z,25.00
2023-05-20T12:21:41.488Z,24.00
2023-05-20T12:23:14.714Z,23.40
2023-05-20T12:24:49.172Z,23.20
2023-05-20T12:26:22.904Z,22.80
2023-05-20T12:27:56.774Z,23.40
2023-05-20T12:29:29.885Z,24.50
2023-05-20T12:31:03.053Z,25.10
2023-05-20T12:32:36.247Z,25.90
2023-05-20T12:34:09.415Z,25.90
2023-05-20T12:35:44.546Z,25.80
2023-05-20T12:37:16.867Z,25.80
2023-05-20T12:38:50.012Z,25.70
2023-05-20T12:40:23.580Z,25.80
2023-05-20T12:41:56.706Z,26.00
2023-05-20T12:43:29.826Z,26.10
2023-05-20T12:45:03.474Z,26.20
2023-05-20T12:46:37.253Z,25.30
2023-05-20T12:48:11.065Z,24.50
2023-05-20T12:49:44.224Z,23.90
2023-05-20T12:51:17.564Z,23.10
2023-05-20T12:52:50.702Z,22.50
2023-05-20T12:54:28.112Z,22.30
2023-05-20T12:56:02.637Z,22.30
2023-05-20T12:57:35.856Z,23.10
2023-05-20T12:59:09.140Z,23.50
2023-05-20T13:00:42.349Z,24.50
2023-05-20T13:02:15.532Z,24.70
2023-05-20T13:03:52.976Z,25.30
2023-05-20T13:05:26.158Z,25.20
2023-05-20T13:06:59.477Z,25.10
2023-05-20T13:08:32.552Z,25.20
2023-05-20T13:10:06.871Z,25.40
2023-05-20T13:11:41.364Z,25.40
2023-05-20T13:13:21.222Z,25.40
2023-05-20T13:14:54.403Z,25.60
2023-05-20T13:16:27.701Z,26.20
2023-05-20T13:18:03.336Z,25.60
2023-05-20T13:19:37.868Z,25.70
2023-05-20T13:21:11.257Z,26.20
2023-05-20T13:22:44.351Z,26.20
2023-05-20T13:24:17.560Z,26.50
2023-05-20T13:25:50.704Z,26.30
2023-05-20T13:27:25.280Z,26.80
2023-05-20T13:28:58.773Z,26.60
2023-05-20T13:30:32.645Z,26.40
2023-05-20T13:32:06.323Z,26.10
2023-05-20T13:33:39.458Z,25.80
2023-05-20T13:35:13.056Z,25.50
2023-05-20T13:36:47.823Z,25.10
2023-05-20T13:38:21.090Z,25.00
2023-05-20T13:39:54.226Z,24.90
2023-05-20T13:41:27.691Z,24.80
2023-05-20T13:43:02.547Z,24.40
2023-05-20T13:44:35.725Z,23.90
2023-05-20T13:46:08.883Z,23.70
2023-05-20T13:47:42.060Z,23.50
2023-05-20T13:49:15.298Z,23.40
2023-05-20T13:50:48.406Z,23.70
2023-05-20T13:52:21.509Z,23.60
2023-05-20T13:53:54.693Z,23.50
2023-05-20T13:55:28.490Z,23.20
2023-05-20T13:57:03.193Z,23.50
2023-05-20T13:58:37.780Z,24.00
2023-05-20T14:00:11.846Z,24.30
2023-05-20T14:01:45.684Z,24.70
2023-05-20T14:03:19.748Z,25.10
2023-05-20T14:04:53.035Z,25.30
2023-05-20T14:06:26.193Z,25.20
2023-05-20T14:07:59.399Z,25.30
2023-05-20T14:09:32.569Z,24.60
2023-05-20T14:11:05.844Z,24.20
2023-05-20T14:12:38.928Z,23.60
2023-05-20T14:14:13.477Z,23.40
2023-05-20T14:15:46.638Z,23.70
2023-05-20T14:17:19.857Z,23.70
2023-05-20T14:18:52.973Z,23.40
2023-05-20T14:20:26.493Z,23.20
2023-05-20T14:22:01.159Z,22.90
2023-05-20T14:23:34.725Z,22.70
2023-05-20T14:25:08.775Z,22.50
2023-05-20T14:26:41.871Z,22.70
2023-05-20T14:28:14.989Z,23.20
2023-05-20T14:29:49.494Z,23.50
2023-05-20T14:31:22.637Z,23.90
2023-05-20T14:32:55.857Z,24.10
2023-05-20T14:34:29.024Z,23.90
2023-05-20T14:36:02.202Z,23.60
2023-05-20T14:37:35.384Z,23.10
2023-05-20T14:39:08.518Z,22.90
2023-05-20T14:40:41.676Z,22.80
2023-05-20T14:42:14.904Z,22.60
2023-05-20T14:43:47.993Z,22.50
2023-05-20T14:45:22.570Z,22.50
2023-05-20T14:46:55.800Z,22.50
2023-05-20T14:48:29.000Z,22.70
2023-05-20T14:50:02.373Z,22.90
2023-05-20T14:51:35.489Z,23.10
2023-05-20T14:53:08.632Z,23.20
2023-05-20T14:54:41.713Z,23.50
2023-05-20T14:56:14.865Z,23.50
2023-05-20T14:57:48.396Z,23.40
2023-05-20T14:59:21.591Z,23.10
2023-05-20T15:00:56.264Z,22.90
2023-05-20T15:02:29.510Z,22.80
2023-05-20T15:04:03.052Z,22.80
2023-05-20T15:05:36.209Z,22.70
2023-05-20T15:07:09.371Z,22.70
2023-05-20T15:08:42.841Z,22.70
2023-05-20T15:10:16.493Z,22.50
2023-05-20T15:11:49.805Z,22.50
2023-05-20T15:13:23.005Z,22.40
2023-05-20T15:14:56.694Z,22.40
2023-05-20T15:16:31.329Z,22.30
2023-05-20T15:18:04.690Z,22.20
2023-05-20T15:19:39.676Z,22.30
2023-05-20T15:21:14.414Z,22.30
2023-05-20T15:22:48.214Z,22.40
2023-05-20T15:24:22.673Z,22.50
2023-05-20T15:25:58.351Z,22.60
2023-05-20T15:27:31.494Z,22.70
2023-05-20T15:29:04.889Z,22.80
2023-05-20T15:30:38.198Z,22.90
2023-05-20T15:32:12.849Z,22.90
2023-05-20T15:33:46.307Z,22.70
2023-05-20T15:35:19.521Z,22.60
2023-05-20T15:36:52.688Z,22.60
2023-05-20T15:38:25.876Z,22.60
2023-05-20T15:39:59.120Z,22.50
2023-05-20T15:41:32.989Z,22.30
2023-05-20T15:43:06.635Z,22.20
2023-05-20T15:44:39.807Z,22.20
2023-05-20T15:46:13.145Z,22.10
2023-05-20T15:47:47.676Z,22.00
2023-05-20T15:49:20.829Z,21.90
2023-05-20T15:50:54.039Z,21.90
2023-05-20T15:52:27.398Z,21.90
2023-05-20T15:54:00.590Z,21.80
2023-05-20T15:55:33.766Z,21.70
2023-05-20T15:57:06.973Z,21.50
2023-05-20T15:58:40.497Z,21.50
2023-05-20T16:00:14.709Z,21.50
2023-05-20T16:01:47.904Z,21.50
2023-05-20T16:03:22.591Z,21.50
2023-05-20T16:04:55.744Z,21.60
2023-05-20T16:06:28.848Z,21.70
2023-05-20T16:08:01.942Z,21.80
2023-05-20T16:09:35.488Z,21.80
2023-05-20T16:11:08.756Z,21.90
2023-05-20T16:12:41.933Z,21.90
2023-05-20T16:14:15.082Z,21.80
2023-05-20T16:15:49.832Z,21.70
2023-05-20T16:17:23.536Z,21.60
2023-05-20T16:18:58.872Z,21.60
2023-05-20T16:20:32.164Z,21.60
2023-05-20T16:22:05.780Z,21.50
2023-05-20T16:23:39.009Z,21.30
2023-05-20T16:25:12.143Z,21.30
2023-05-20T16:26:45.531Z,21.30
2023-05-20T16:28:18.723Z,21.10
2023-05-20T16:29:51.938Z,21.10
2023-05-20T16:31:26.097Z,21.10
2023-05-20T16:32:59.296Z,21.00
2023-05-20T16:34:33.824Z,21.00
2023-05-20T16:36:07.553Z,20.90
2023-05-20T16:37:40.702Z,21.00
2023-05-20T16:39:13.911Z,20.90
2023-05-20T16:40:47.028Z,20.90
2023-05-20T16:42:20.176Z,20.90
2023-05-20T16:43:53.239Z,20.90
2023-05-20T16:45:26.498Z,20.90
2023-05-20T16:46:59.651Z,20.90
2023-05-20T16:48:32.743Z,21.00
2023-05-20T16:50:08.493Z,21.00
2023-05-20T16:51:41.710Z,20.90
2023-05-20T16:53:16.416Z,20.90
2023-05-20T16:54:51.078Z,20.90
2023-05-20T16:56:24.427Z,21.00
2023-05-20T16:57:57.560Z,21.10
2023-05-20T16:59:31.084Z,21.10
2023-05-20T17:01:04.306Z,21.00
2023-05-20T17:02:37.532Z,21.00
2023-05-20T17:04:11.176Z,20.90
2023-05-20T17:05:45.968Z,20.90
2023-05-20T17:07:19.044Z,20.90
2023-05-20T17:08:52.221Z,20.80
2023-05-20T17:10:25.385Z,20.80
2023-05-20T17:11:58.521Z,20.80
2023-05-20T17:13:31.634Z,20.70
2023-05-20T17:15:06.148Z,20.70
2023-05-20T17:16:39.305Z,20.70
2023-05-20T17:18:12.478Z,20.70
2023-05-20T17:19:45.654Z,20.70
2023-05-20T17:21:20.587Z,20.60
2023-05-20T17:22:53.690Z,20.50
2023-05-20T17:24:26.915Z,20.60
2023-05-20T17:26:00.191Z,20.50
2023-05-20T17:27:33.956Z,20.50
2023-05-20T17:29:07.047Z,20.30
2023-05-20T17:30:40.133Z,20.30
2023-05-20T17:32:13.318Z,20.20
2023-05-20T17:33:46.522Z,20.10
2023-05-20T17:35:20.376Z,20.00
2023-05-20T17:36:54.931Z,19.90
2023-05-20T17:38:28.093Z,19.90
2023-05-20T17:40:01.660Z,19.80
2023-05-20T17:41:34.810Z,19.70
2023-05-20T17:43:07.938Z,19.70
2023-05-20T17:44:41.245Z,19.70
2023-05-20T17:46:14.520Z,19.70
2023-05-20T17:47:47.865Z,19.60
2023-05-20T17:49:21.247Z,19.70
2023-05-20T17:50:54.387Z,19.60
2023-05-20T17:52:28.875Z,19.50
2023-05-20T17:54:02.052Z,19.50
2023-05-20T17:55:36.541Z,19.50
2023-05-20T17:57:09.935Z,19.50
2023-05-20T17:58:44.972Z,19.40
2023-05-20T18:00:21.432Z,19.40
2023-05-20T18:01:54.669Z,19.30
2023-05-20T18:03:29.196Z,19.30
2023-05-20T18:05:02.831Z,19.30
2023-05-20T18:06:37.252Z,19.20
2023-05-20T18:08:11.767Z,19.20
2023-05-20T18:09:45.055Z,19.20
2023-05-20T18:11:18.223Z,19.10
2023-05-20T18:12:51.405Z,19.10
2023-05-20T18:14:26.522Z,19.00
2023-05-20T18:15:59.754Z,19.00
2023-05-20T18:17:32.893Z,18.80
2023-05-20T18:19:06.117Z,18.80
2023-05-20T18:20:39.320Z,18.80
2023-05-20T18:22:12.431Z,18.60
2023-05-20T18:23:47.197Z,18.60
2023-05-20T18:25:20.565Z,18.50
2023-05-20T18:26:53.640Z,18.50
2023-05-20T18:28:25.948Z,18.50
2023-05-20T18:29:59.066Z,18.50
2023-05-20T18:31:32.194Z,18.40
2023-05-20T18:33:06.135Z,18.40
2023-05-20T18:34:39.343Z,18.40
2023-05-20T18:36:12.620Z,18.30
2023-05-20T18:37:45.812Z,18.20
2023-05-20T18:39:21.043Z,18.20
2023-05-20T18:40:54.231Z,18.10
2023-05-20T18:42:27.659Z,18.10
2023-05-20T18:44:00.826Z,18.10
2023-05-20T18:45:33.994Z,18.00
2023-05-20T18:47:07.150Z,18.00
2023-05-20T18:48:40.412Z,17.90
2023-05-20T18:50:13.557Z,17.90
2023-05-20T18:51:46.804Z,17.80
2023-05-20T18:53:20.005Z,17.80
2023-05-20T18:54:54.497Z,17.70
2023-05-20T18:56:27.795Z,17.70
2023-05-20T18:58:00.911Z,17.70
2023-05-20T18:59:34.015Z,17.60
2023-05-20T19:01:07.184Z,17.60
2023-05-20T19:02:40.542Z,17.50
2023-05-20T19:04:13.727Z,17.50
2023-05-20T19:05:47.173Z,17.50
2023-05-20T19:07:20.537Z,17.40
2023-05-20T19:08:53.613Z,17.40
2023-05-20T19:10:29.217Z,17.40
2023-05-20T19:12:02.619Z,17.30
2023-05-20T19:13:35.730Z,17.30
2023-05-20T19:15:10.132Z,17.20
2023-05-20T19:16:43.289Z,17.20
2023-05-20T19:18:16.644Z,17.20
2023-05-20T19:19:49.912Z,17.10
2023-05-20T19:21:23.084Z,17.00
2023-05-20T19:22:56.163Z,16.90
2023-05-20T19:24:31.776Z,16.80
2023-05-20T19:26:06.290Z,16.70
2023-05-20T19:27:39.448Z,16.60
2023-05-20T19:29:14.978Z,16.70
2023-05-20T19:30:48.086Z,16.60
2023-05-20T19:32:21.260Z,16.50
2023-05-20T19:33:54.522Z,16.40
2023-05-20T19:35:27.631Z,16.30
2023-05-20T19:37:00.816Z,16.10
2023-05-20T19:38:33.905Z,16.10
2023-05-20T19:40:08.308Z,16.00
2023-05-20T19:41:42.910Z,15.80
2023-05-20T19:43:16.085Z,15.70
2023-05-20T19:44:49.693Z,15.70
2023-05-20T19:46:21.884Z,15.60
2023-05-20T19:47:55.059Z,15.50
2023-05-20T19:49:29.438Z,15.40
2023-05-20T19:51:02.609Z,15.40
2023-05-20T19:52:35.796Z,15.40
2023-05-20T19:54:09.983Z,15.40
2023-05-20T19:55:43.501Z,15.50
2023-05-20T19:57:17.948Z,15.50
2023-05-20T19:58:51.836Z,15.50
2023-05-20T20:00:25.016Z,15.50
2023-05-20T20:02:02.757Z,15.40
2023-05-20T20:03:35.954Z,15.30
2023-05-20T20:05:09.888Z,15.20
2023-05-20T20:06:43.068Z,15.10
2023-05-20T20:08:16.483Z,15.00
2023-05-20T20:09:51.680Z,14.80
2023-05-20T20:11:24.820Z,14.80
2023-05-20T20:12:59.282Z,14.70
2023-05-20T20:14:32.443Z,14.60
2023-05-20T20:16:05.958Z,14.50
2023-05-20T20:17:45.667Z,14.40